Time;durP1;ratioP1;P1;durP2;ratioP2;P2;SDS_P1;SDS_P2;PMS_P1;PMS_P2;Temp;Humidity;BMP_temperature;BMP_pressure;BME280_temperature;BME280_humidity;BME280_pressure;Samples;Min_cycle;Max_cycle;Signal;HPM_P1;HPM_P2
2022/08/10 00:01:20;;;;;;;2.42;1.67;;;17.40;80.10;;;;;;5012074;28;20103;-62
2022/08/10 00:03:46;;;;;;;3.97;1.88;;;17.40;80.50;;;;;;5011040;28;20706;-64
2022/08/10 00:06:12;;;;;;;3.90;2.08;;;17.30;80.80;;;;;;5011709;28;20025;-63
2022/08/10 00:08:38;;;;;;;3.67;1.92;;;17.30;80.90;;;;;;5012108;28;20490;-63
2022/08/10 00:11:03;;;;;;;3.60;1.80;;;17.20;81.10;;;;;;5011505;28;20026;-61
2022/08/10 00:13:29;;;;;;;3.40;1.90;;;17.20;81.10;;;;;;5012151;28;20152;-65
2022/08/10 00:15:55;;;;;;;2.75;1.80;;;17.10;81.40;;;;;;5011453;28;20030;-64
2022/08/10 00:18:22;;;;;;;3.13;1.92;;;17.10;81.60;;;;;;5011648;28;20037;-69
2022/08/10 00:20:48;;;;;;;3.80;1.67;;;17.00;81.70;;;;;;5011989;28;20050;-69
2022/08/10 00:23:13;;;;;;;2.78;1.60;;;17.00;81.90;;;;;;5011187;28;20065;-71
2022/08/10 00:25:39;;;;;;;2.33;1.70;;;16.90;82.10;;;;;;5029728;28;20029;-64
2022/08/10 00:28:05;;;;;;;3.22;1.48;;;16.90;82.50;;;;;;5015125;28;20377;-61
2022/08/10 00:30:31;;;;;;;1.77;1.48;;;16.80;83.30;;;;;;5030692;28;20409;-66
2022/08/10 00:32:56;;;;;;;2.20;1.60;;;16.80;82.90;;;;;;5029725;28;20067;-67
2022/08/10 00:35:22;;;;;;;2.55;1.80;;;16.70;83.40;;;;;;5031237;28;20029;-64
2022/08/10 00:37:48;;;;;;;2.50;1.60;;;16.70;83.60;;;;;;5030345;28;20691;-61
2022/08/10 00:40:13;;;;;;;3.60;1.67;;;16.60;83.80;;;;;;5031064;28;20458;-62
2022/08/10 00:42:39;;;;;;;2.58;1.70;;;16.60;83.90;;;;;;5031050;28;20029;-67
2022/08/10 00:45:05;;;;;;;2.15;1.58;;;16.50;84.20;;;;;;5029928;28;20033;-66
2022/08/10 00:47:31;;;;;;;2.70;1.90;;;16.50;84.30;;;;;;5029890;28;20018;-67
2022/08/10 00:49:56;;;;;;;3.78;1.80;;;16.40;84.50;;;;;;5031047;28;20026;-67
2022/08/10 00:52:24;;;;;;;4.22;2.17;;;16.40;84.80;;;;;;5030482;28;20030;-63
2022/08/10 00:54:51;;;;;;;3.95;1.70;;;16.30;85.10;;;;;;5030842;28;20025;-61
2022/08/10 00:57:18;;;;;;;3.03;1.48;;;16.30;85.20;;;;;;5031306;28;20033;-61
2022/08/10 00:59:45;;;;;;;2.35;1.30;;;16.30;85.20;;;;;;5030629;28;20115;-62
2022/08/10 01:02:11;;;;;;;2.65;1.90;;;16.20;85.20;;;;;;5030619;28;20164;-62
2022/08/10 01:04:36;;;;;;;2.42;1.60;;;16.20;85.60;;;;;;5030886;28;20120;-61
2022/08/10 01:07:20;;;;;;;2.08;1.45;;;16.20;85.60;;;;;;5029901;28;20028;-63
2022/08/10 01:10:01;;;;;;;3.30;1.98;;;16.20;85.80;;;;;;5031047;28;20036;-61
2022/08/10 01:12:37;;;;;;;3.70;2.40;;;16.20;85.80;;;;;;5030655;28;20478;-61
2022/08/10 01:15:08;;;;;;;2.38;1.48;;;16.20;86.50;;;;;;5034339;28;20032;-61
2022/08/10 01:17:48;;;;;;;2.85;1.63;;;16.10;86.50;;;;;;5033242;28;20025;-60
2022/08/10 01:20:32;;;;;;;4.32;2.00;;;16.00;86.60;;;;;;5033978;28;20048;-61
2022/08/10 01:23:32;;;;;;;2.97;1.83;;;16.00;86.80;;;;;;5034420;28;20034;-61
2022/08/10 01:26:22;;;;;;;5.30;2.25;;;16.00;87.10;;;;;;5034199;28;20523;-61
2022/08/10 01:29:19;;;;;;;2.45;1.77;;;15.90;87.20;;;;;;5034130;28;20381;-61
2022/08/10 01:31:50;;;;;;;4.82;1.95;;;15.80;87.50;;;;;;5034592;28;20021;-64
2022/08/10 01:34:22;;;;;;;3.13;2.13;;;15.80;87.50;;;;;;5033972;28;20029;-61
2022/08/10 01:36:52;;;;;;;4.68;2.53;;;15.80;87.90;;;;;;5034591;28;20128;-61
2022/08/10 01:39:24;;;;;;;3.35;2.13;;;15.70;88.30;;;;;;5034534;28;20100;-61
2022/08/10 01:41:55;;;;;;;3.85;2.00;;;15.70;88.40;;;;;;5033577;28;20036;-60
2022/08/10 01:44:29;;;;;;;;;;;15.70;88.70;;;;;;5034924;28;20103;-67
2022/08/10 01:48:27;;;;;;;4.32;2.30;;;15.60;88.70;;;;;;5034032;28;20328;-67
2022/08/10 01:49:48;;;;;;;5.40;2.50;;;15.60;89.60;;;;;;5033723;28;20044;-68
2022/08/10 01:52:17;;;;;;;3.95;2.40;;;15.50;89.70;;;;;;5034263;28;20033;-69
2022/08/10 01:54:44;;;;;;;2.88;2.08;;;15.50;90.30;;;;;;5034400;28;20099;-67
2022/08/10 01:57:12;;;;;;;3.15;2.28;;;15.50;90.10;;;;;;5033678;28;20198;-64
2022/08/10 01:59:40;;;;;;;2.85;1.80;;;15.40;90.20;;;;;;5034398;28;20036;-67
2022/08/10 02:02:10;;;;;;;4.63;2.22;;;15.40;90.20;;;;;;5033302;28;20533;-67
2022/08/10 02:04:38;;;;;;;4.05;2.38;;;15.40;90.30;;;;;;5034340;28;20037;-68
2022/08/10 02:07:07;;;;;;;5.70;2.20;;;15.40;90.50;;;;;;5033593;28;20058;-66
2022/08/10 02:09:37;;;;;;;6.35;2.75;;;15.30;90.50;;;;;;5033639;28;20079;-67
2022/08/10 02:12:07;;;;;;;4.88;2.60;;;15.30;90.60;;;;;;5033730;28;20025;-67
2022/08/10 02:14:37;;;;;;;5.38;2.30;;;15.20;91.10;;;;;;5033966;28;20025;-61
2022/08/10 02:17:08;;;;;;;3.55;2.42;;;15.20;90.90;;;;;;5032916;28;20124;-66
2022/08/10 02:19:36;;;;;;;3.65;2.10;;;15.20;91.20;;;;;;5034077;28;20029;-67
2022/08/10 02:22:03;;;;;;;3.22;2.28;;;15.10;91.20;;;;;;5033333;28;20071;-66
2022/08/10 02:24:29;;;;;;;4.13;2.20;;;15.10;91.20;;;;;;5033066;28;20044;-63
2022/08/10 02:26:56;;;;;;;3.88;2.38;;;15.10;91.30;;;;;;5033492;28;20385;-64
2022/08/10 02:29:23;;;;;;;3.40;2.15;;;15.10;91.30;;;;;;5032467;28;20473;-68
2022/08/10 02:31:49;;;;;;;3.53;2.13;;;15.00;91.40;;;;;;5032543;28;20021;-63
2022/08/10 02:34:15;;;;;;;3.58;2.40;;;15.00;91.40;;;;;;5033118;28;20094;-67
2022/08/10 02:36:45;;;;;;;5.15;2.70;;;15.00;91.60;;;;;;5034610;28;20123;-67
2022/08/10 02:39:12;;;;;;;4.07;2.50;;;15.00;91.80;;;;;;5043813;28;20014;-67
2022/08/10 02:41:59;;;;;;;4.93;2.53;;;14.90;91.80;;;;;;5033330;28;20021;-67
2022/08/10 02:44:40;;;;;;;3.25;2.20;;;14.90;92.20;;;;;;5012973;28;20565;-66
2022/08/10 02:47:20;;;;;;;3.05;2.13;;;14.90;91.90;;;;;;5013611;28;20022;-66
2022/08/10 02:50:12;;;;;;;5.68;2.53;;;14.80;92.00;;;;;;5013608;28;20097;-63
2022/08/10 02:52:44;;;;;;;3.90;2.25;;;14.70;92.30;;;;;;5004603;28;20080;-60
2022/08/10 02:55:41;;;;;;;4.28;2.60;;;14.70;92.40;;;;;;5013081;28;20084;-61
2022/08/10 02:58:12;;;;;;;4.90;2.70;;;14.70;92.60;;;;;;5012414;28;20026;-62
2022/08/10 03:00:42;;;;;;;;;;;14.60;92.60;;;;;;5013967;28;20028;-60
2022/08/10 03:03:12;;;;;;;5.18;2.45;;;14.60;93.00;;;;;;5012952;28;19906;-62
2022/08/10 03:05:38;;;;;;;6.57;2.78;;;14.50;92.80;;;;;;5012682;28;20030;-62
2022/08/10 03:08:07;;;;;;;5.55;3.00;;;14.50;92.90;;;;;;5012809;28;20355;-63
2022/08/10 03:10:38;;;;;;;4.97;2.60;;;14.50;93.10;;;;;;5017210;28;20375;-62
2022/08/10 03:13:04;;;;;;;;;;;14.50;93.20;;;;;;5032775;28;20014;-63
2022/08/10 03:15:33;;;;;;;4.15;2.40;;;14.40;93.30;;;;;;5032601;28;19909;-64
2022/08/10 03:17:59;;;;;;;4.07;2.50;;;14.40;93.30;;;;;;5031916;28;20029;-63
2022/08/10 03:20:28;;;;;;;4.25;2.70;;;14.40;93.30;;;;;;5032284;28;20022;-63
2022/08/10 03:22:54;;;;;;;4.90;2.42;;;14.40;93.30;;;;;;5032334;28;20119;-62
2022/08/10 03:25:22;;;;;;;4.90;3.10;;;14.30;93.30;;;;;;5032274;28;20045;-62
2022/08/10 03:27:49;;;;;;;6.20;3.50;;;14.30;93.60;;;;;;5031934;28;20084;-59
2022/08/10 03:30:15;;;;;;;5.65;3.40;;;14.30;93.90;;;;;;5032180;28;20056;-60
2022/08/10 03:32:42;;;;;;;5.32;3.13;;;14.30;94.40;;;;;;5032438;28;20029;-60
2022/08/10 03:35:09;;;;;;;4.38;2.60;;;14.20;94.30;;;;;;5029713;28;20026;-60
2022/08/10 03:37:35;;;;;;;5.47;3.13;;;14.20;94.40;;;;;;5031231;28;20498;-61
2022/08/10 03:40:00;;;;;;;4.72;2.95;;;14.10;94.50;;;;;;5031813;28;20056;-60
2022/08/10 03:42:28;;;;;;;4.53;3.00;;;14.20;94.50;;;;;;5031758;28;20025;-61
2022/08/10 03:44:55;;;;;;;5.18;3.08;;;14.10;94.50;;;;;;5018453;28;20041;-61
2022/08/10 03:47:23;;;;;;;5.05;3.03;;;14.10;94.70;;;;;;5011422;28;20037;-60
2022/08/10 03:49:50;;;;;;;6.45;3.00;;;14.10;94.60;;;;;;5012357;28;20033;-61
2022/08/10 03:52:17;;;;;;;6.05;3.08;;;14.10;94.70;;;;;;5012265;28;20046;-61
2022/08/10 03:54:44;;;;;;;6.28;3.63;;;14.10;94.80;;;;;;5011792;28;20426;-63
2022/08/10 03:57:10;;;;;;;4.68;2.80;;;14.00;94.80;;;;;;5011770;28;20057;-62
2022/08/10 03:59:37;;;;;;;5.00;3.00;;;14.00;94.90;;;;;;5012344;28;20037;-66
2022/08/10 04:02:05;;;;;;;5.45;3.47;;;14.00;95.00;;;;;;5011304;28;20105;-66
2022/08/10 04:04:31;;;;;;;6.55;3.35;;;13.90;95.20;;;;;;4994507;28;20033;-66
2022/08/10 04:07:00;;;;;;;5.07;3.05;;;13.90;95.30;;;;;;5011810;28;20056;-65
2022/08/10 04:09:29;;;;;;;6.75;4.18;;;13.90;95.50;;;;;;5011450;28;20375;-66
2022/08/10 04:11:54;;;;;;;5.90;3.50;;;13.90;95.50;;;;;;5011680;28;20459;-67
2022/08/10 04:14:20;;;;;;;7.13;3.58;;;13.80;95.50;;;;;;5011884;28;20029;-63
2022/08/10 04:16:45;;;;;;;6.32;3.88;;;13.80;95.60;;;;;;5011581;28;20026;-62
2022/08/10 04:19:13;;;;;;;5.68;3.38;;;13.70;95.80;;;;;;5011374;28;20030;-61
2022/08/10 04:21:42;;;;;;;8.05;3.75;;;13.70;95.90;;;;;;5011756;28;20034;-66
2022/08/10 04:24:21;;;;;;;6.18;3.53;;;13.70;96.00;;;;;;5011004;28;20026;-68
2022/08/10 04:26:47;;;;;;;7.05;4.05;;;13.70;96.20;;;;;;5012010;28;20030;-67
2022/08/10 04:29:13;;;;;;;7.95;4.20;;;13.70;96.20;;;;;;5011420;28;20401;-64
2022/08/10 04:31:43;;;;;;;6.47;4.18;;;13.70;96.50;;;;;;5011444;28;20022;-62
2022/08/10 04:34:10;;;;;;;6.28;3.60;;;13.70;96.50;;;;;;5011481;28;20036;-65
2022/08/10 04:36:38;;;;;;;6.18;3.85;;;13.70;96.40;;;;;;5010932;28;20063;-61
2022/08/10 04:39:04;;;;;;;7.75;4.15;;;13.70;96.40;;;;;;5011493;28;20064;-62
2022/08/10 04:41:29;;;;;;;7.40;3.95;;;13.70;96.40;;;;;;5011607;28;20497;-61
2022/08/10 04:43:55;;;;;;;5.90;3.45;;;13.70;96.40;;;;;;5010951;28;20026;-60
2022/08/10 04:46:21;;;;;;;7.25;3.50;;;13.70;96.30;;;;;;5011527;28;20061;-61
2022/08/10 04:48:46;;;;;;;7.72;4.20;;;13.70;96.40;;;;;;5014627;28;20084;-62
2022/08/10 04:51:14;;;;;;;7.43;3.97;;;13.70;96.40;;;;;;5017296;28;20034;-65
2022/08/10 04:53:40;;;;;;;7.40;4.05;;;13.70;96.40;;;;;;5018062;28;20124;-62
2022/08/10 04:56:07;;;;;;;8.23;4.25;;;13.70;96.40;;;;;;5017899;28;20451;-61
2022/08/10 04:58:34;;;;;;;7.78;5.00;;;13.70;96.40;;;;;;5017737;28;20018;-63
2022/08/10 05:00:59;;;;;;;9.38;5.22;;;13.70;96.40;;;;;;5017433;28;20552;-66
2022/08/10 05:03:25;;;;;;;6.18;3.63;;;13.70;96.50;;;;;;5017130;28;20109;-62
2022/08/10 05:05:51;;;;;;;8.25;4.80;;;13.80;96.50;;;;;;5016909;28;20038;-63
2022/08/10 05:08:16;;;;;;;7.57;3.95;;;13.80;96.60;;;;;;5023001;28;20021;-64
2022/08/10 05:10:42;;;;;;;7.57;4.43;;;13.80;96.60;;;;;;5037954;28;20415;-62
2022/08/10 05:13:08;;;;;;;8.32;4.53;;;13.80;96.50;;;;;;5036601;28;20063;-61
2022/08/10 05:15:33;;;;;;;10.25;5.28;;;13.90;96.90;;;;;;5037686;28;20030;-61
2022/08/10 05:17:59;;;;;;;9.80;4.70;;;13.90;97.20;;;;;;5036863;28;20474;-62
2022/08/10 05:20:25;;;;;;;9.05;5.00;;;13.90;97.10;;;;;;5029755;28;20037;-62
2022/08/10 05:22:50;;;;;;;9.13;4.68;;;14.00;96.90;;;;;;5035748;28;20113;-66
2022/08/10 05:25:18;;;;;;;10.60;5.25;;;14.10;96.90;;;;;;5017359;28;20060;-62
2022/08/10 05:27:45;;;;;;;7.85;4.68;;;14.10;97.10;;;;;;5036667;28;20025;-62
2022/08/10 05:30:14;;;;;;;11.02;5.85;;;14.20;97.00;;;;;;5036481;28;20025;-62
2022/08/10 05:32:40;;;;;;;8.18;5.00;;;14.30;97.00;;;;;;5036823;28;20026;-62
2022/08/10 05:35:06;;;;;;;9.10;5.20;;;14.40;97.00;;;;;;5036180;28;20030;-62
2022/08/10 05:37:33;;;;;;;10.00;5.70;;;14.50;97.00;;;;;;5036592;28;20489;-62
2022/08/10 05:40:01;;;;;;;8.98;5.75;;;14.50;96.90;;;;;;5036279;28;20044;-62
2022/08/10 05:42:28;;;;;;;10.27;5.95;;;14.60;96.90;;;;;;5037235;28;20075;-63
2022/08/10 05:44:54;;;;;;;11.27;6.07;;;14.60;96.90;;;;;;5025443;28;20041;-62
2022/08/10 05:47:20;;;;;;;11.80;6.35;;;14.70;97.00;;;;;;5049309;28;20032;-63
2022/08/10 05:49:49;;;;;;;12.40;6.97;;;14.80;96.90;;;;;;5044168;28;20091;-61
2022/08/10 05:52:25;;;;;;;11.40;6.63;;;14.80;97.10;;;;;;5043851;28;20017;-61
2022/08/10 05:54:51;;;;;;;11.45;6.50;;;14.90;97.20;;;;;;5037244;28;20021;-61
2022/08/10 05:57:18;;;;;;;11.75;6.68;;;14.90;97.10;;;;;;5037126;28;20017;-61
2022/08/10 05:59:48;;;;;;;10.45;6.72;;;14.90;97.10;;;;;;5035876;28;20048;-61
2022/08/10 06:02:23;;;;;;;15.17;7.80;;;15.00;97.10;;;;;;5033694;28;20374;-61
2022/08/10 06:04:51;;;;;;;12.82;6.13;;;15.00;97.20;;;;;;5031759;28;20029;-61
2022/08/10 06:07:19;;;;;;;12.75;7.57;;;15.10;97.10;;;;;;5022176;28;20030;-61
2022/08/10 06:09:46;;;;;;;16.58;8.25;;;15.10;97.30;;;;;;5013922;28;20022;-61
2022/08/10 06:12:13;;;;;;;12.80;7.60;;;15.20;97.50;;;;;;5026672;28;20118;-61
2022/08/10 06:15:01;;;;;;;15.05;7.97;;;15.20;97.30;;;;;;5034228;28;20021;-61
2022/08/10 06:17:30;;;;;;;14.55;8.32;;;15.30;97.30;;;;;;5033830;28;20104;-61
2022/08/10 06:19:57;;;;;;;14.50;7.90;;;15.40;97.20;;;;;;5033154;28;20490;-66
2022/08/10 06:22:26;;;;;;;13.82;8.05;;;15.50;97.10;;;;;;5023095;28;20029;-67
2022/08/10 06:24:55;;;;;;;15.57;8.20;;;15.50;97.10;;;;;;5013808;28;20120;-67
2022/08/10 06:27:21;;;;;;;13.35;8.02;;;15.60;97.10;;;;;;5013928;28;20026;-61
2022/08/10 06:29:48;;;;;;;13.90;7.90;;;15.60;96.90;;;;;;5013410;28;20025;-61
2022/08/10 06:32:15;;;;;;;16.15;8.38;;;15.70;97.00;;;;;;5021938;28;20040;-61
2022/08/10 06:34:53;;;;;;;14.57;8.18;;;15.80;97.00;;;;;;5015606;28;20502;-61
2022/08/10 06:37:22;;;;;;;14.25;7.75;;;15.90;96.70;;;;;;5033088;28;20196;-61
2022/08/10 06:39:47;;;;;;;17.38;8.63;;;15.90;96.60;;;;;;5033281;28;20478;-61
2022/08/10 06:42:14;;;;;;;14.63;7.85;;;16.00;96.60;;;;;;5030928;28;20029;-61
2022/08/10 06:45:04;;;;;;;16.00;8.43;;;16.10;96.50;;;;;;5032800;28;20034;-61
2022/08/10 06:47:35;;;;;;;15.93;8.93;;;16.20;96.40;;;;;;5032329;28;20423;-62
2022/08/10 06:50:06;;;;;;;15.38;9.38;;;16.30;96.30;;;;;;5032857;28;20057;-65
2022/08/10 06:52:34;;;;;;;16.75;8.60;;;16.30;96.20;;;;;;5030810;28;20038;-64
2022/08/10 06:55:01;;;;;;;14.27;8.07;;;16.40;96.00;;;;;;5012683;28;20072;-62
2022/08/10 06:57:29;;;;;;;15.70;9.32;;;16.50;95.90;;;;;;5012819;28;20141;-61
2022/08/10 06:59:58;;;;;;;16.45;8.05;;;16.60;95.80;;;;;;5013256;28;20025;-61
2022/08/10 07:02:33;;;;;;;14.73;9.05;;;16.70;95.60;;;;;;5014936;28;20057;-61
2022/08/10 07:05:02;;;;;;;15.00;8.13;;;16.80;95.50;;;;;;5028282;28;20044;-63
2022/08/10 07:07:31;;;;;;;16.98;9.30;;;16.90;95.30;;;;;;5032868;28;20429;-61
2022/08/10 07:09:58;;;;;;;14.52;9.13;;;17.00;95.30;;;;;;5032550;28;20021;-61
2022/08/10 07:12:26;;;;;;;14.82;9.27;;;17.00;95.30;;;;;;5032059;28;20024;-61
2022/08/10 07:14:53;;;;;;;14.88;8.82;;;17.10;95.10;;;;;;5031179;28;20080;-61
2022/08/10 07:17:21;;;;;;;12.70;8.20;;;17.30;95.00;;;;;;5031244;28;20026;-61
2022/08/10 07:19:50;;;;;;;13.95;8.57;;;17.40;94.70;;;;;;5032319;28;20040;-61
2022/08/10 07:22:18;;;;;;;15.73;8.73;;;17.50;94.50;;;;;;5032753;28;20049;-61
2022/08/10 07:24:45;;;;;;;15.18;8.60;;;17.60;94.30;;;;;;5011047;28;20127;-61
2022/08/10 07:27:12;;;;;;;17.10;8.70;;;17.80;93.90;;;;;;5015513;28;20048;-63
2022/08/10 07:29:39;;;;;;;17.98;9.70;;;17.90;93.70;;;;;;5040973;28;20025;-61
2022/08/10 07:32:07;;;;;;;16.45;8.95;;;18.00;93.40;;;;;;5021914;28;20055;-61
2022/08/10 07:34:35;;;;;;;17.40;9.30;;;18.10;93.20;;;;;;5036678;28;20037;-62
2022/08/10 07:37:04;;;;;;;17.65;9.35;;;18.20;92.90;;;;;;5031723;28;20045;-61
2022/08/10 07:39:36;;;;;;;14.23;8.98;;;18.30;92.60;;;;;;5031500;28;20033;-61
2022/08/10 07:42:04;;;;;;;16.13;8.80;;;18.40;92.10;;;;;;5031779;28;20100;-61
2022/08/10 07:44:31;;;;;;;13.77;8.30;;;18.50;92.00;;;;;;5019370;28;20112;-61
2022/08/10 07:47:00;;;;;;;13.57;8.15;;;18.60;92.00;;;;;;5014652;28;20433;-60
2022/08/10 07:49:37;;;;;;;15.70;8.48;;;18.80;91.70;;;;;;5016379;28;20497;-58
2022/08/10 07:52:06;;;;;;;15.57;8.50;;;18.90;91.30;;;;;;5027897;28;20072;-58
2022/08/10 07:54:39;;;;;;;14.45;8.88;;;19.00;91.10;;;;;;5020952;28;20056;-57
2022/08/10 07:57:09;;;;;;;15.38;8.07;;;19.10;90.80;;;;;;5028666;28;20021;-59
2022/08/10 07:59:38;;;;;;;14.15;7.78;;;19.30;90.40;;;;;;5011135;28;20603;-61
2022/08/10 08:02:07;;;;;;;15.48;8.85;;;19.40;90.30;;;;;;5016672;28;20020;-59
2022/08/10 08:04:34;;;;;;;15.65;7.78;;;19.50;89.80;;;;;;4996707;28;20628;-62
2022/08/10 08:07:03;;;;;;;14.68;8.10;;;19.60;88.80;;;;;;5029058;28;20112;-59
2022/08/10 08:09:29;;;;;;;12.88;7.65;;;19.80;88.60;;;;;;5007832;28;20048;-59
2022/08/10 08:11:56;;;;;;;13.00;6.82;;;19.90;87.70;;;;;;5019970;28;20156;-59
2022/08/10 08:14:22;;;;;;;13.00;6.88;;;20.00;87.20;;;;;;5007655;28;20354;-60
2022/08/10 08:16:50;;;;;;;15.68;6.97;;;20.10;86.90;;;;;;5035670;28;20155;-59
2022/08/10 08:19:17;;;;;;;13.38;7.28;;;20.20;86.10;;;;;;5049538;28;20021;-57
2022/08/10 08:21:44;;;;;;;11.00;6.63;;;20.40;85.30;;;;;;5043211;28;20485;-62
2022/08/10 08:24:12;;;;;;;10.68;6.32;;;20.50;84.30;;;;;;5010615;28;21852;-59
2022/08/10 08:26:39;;;;;;;10.88;6.03;;;20.70;84.00;;;;;;5010871;28;20026;-59
2022/08/10 08:29:09;;;;;;;9.73;5.40;;;20.80;83.00;;;;;;5024812;28;20021;-61
2022/08/10 08:31:35;;;;;;;12.15;5.80;;;20.90;82.20;;;;;;5048852;28;20025;-61
2022/08/10 08:34:03;;;;;;;11.27;5.60;;;20.90;81.20;;;;;;5022197;28;20300;-62
2022/08/10 08:36:29;;;;;;;9.82;5.40;;;21.10;81.10;;;;;;5033574;28;20063;-62
2022/08/10 08:38:55;;;;;;;9.60;5.25;;;21.20;80.80;;;;;;5021322;28;20033;-61
2022/08/10 08:41:58;;;;;;;9.63;5.43;;;21.40;80.10;;;;;;5032261;28;20043;-65
2022/08/10 08:44:43;;;;;;;7.22;4.40;;;21.50;79.10;;;;;;5017061;28;20037;-61
2022/08/10 08:47:53;;;;;;;7.97;4.82;;;21.60;77.20;;;;;;5013288;28;20473;-58
2022/08/10 08:50:36;;;;;;;8.55;4.18;;;21.80;76.80;;;;;;4998715;28;20045;-64
2022/08/10 08:53:37;;;;;;;6.68;3.80;;;21.90;75.80;;;;;;5028643;28;20036;-64
2022/08/10 08:56:31;;;;;;;6.35;3.75;;;22.00;75.00;;;;;;5029524;28;20034;-58
2022/08/10 08:59:10;;;;;;;8.93;3.38;;;22.10;74.90;;;;;;5027957;28;20030;-58
2022/08/10 09:01:57;;;;;;;6.60;3.35;;;22.30;74.50;;;;;;5023574;28;20027;-59
2022/08/10 09:04:31;;;;;;;5.57;2.92;;;22.50;73.60;;;;;;5027873;28;20474;-58
2022/08/10 09:07:07;;;;;;;5.70;2.90;;;22.60;73.30;;;;;;5029635;28;20043;-59
2022/08/10 09:09:52;;;;;;;5.18;2.88;;;22.80;72.80;;;;;;5026972;28;20022;-59
2022/08/10 09:12:51;;;;;;;5.75;2.88;;;22.80;70.40;;;;;;5008979;28;20034;-60
2022/08/10 09:15:28;;;;;;;6.40;2.58;;;22.90;70.20;;;;;;4960435;28;20039;-58
2022/08/10 09:18:00;;;;;;;6.28;2.78;;;23.00;68.90;;;;;;5028282;28;20022;-59
2022/08/10 09:20:43;;;;;;;3.85;2.35;;;23.10;68.80;;;;;;5025373;28;20048;-60
2022/08/10 09:23:27;;;;;;;3.65;2.15;;;23.20;68.40;;;;;;5028562;28;20100;-59
2022/08/10 09:25:58;;;;;;;5.55;2.50;;;23.40;67.10;;;;;;5028858;28;20112;-59
2022/08/10 09:28:26;;;;;;;4.93;2.30;;;23.50;66.70;;;;;;5028754;28;20018;-58
2022/08/10 09:31:09;;;;;;;2.55;1.85;;;23.60;65.70;;;;;;5019936;28;20033;-59
2022/08/10 09:33:53;;;;;;;2.58;1.75;;;23.70;65.70;;;;;;5008430;28;20033;-58
2022/08/10 09:36:39;;;;;;;3.22;1.90;;;23.80;64.80;;;;;;5011248;28;20022;-60
2022/08/10 09:39:22;;;;;;;3.67;1.90;;;24.00;62.80;;;;;;5016438;28;20033;-59
2022/08/10 09:42:12;;;;;;;1.83;1.70;;;24.10;63.10;;;;;;5009383;28;20120;-58
2022/08/10 09:44:58;;;;;;;3.67;1.60;;;24.20;62.30;;;;;;5017582;28;20482;-59
2022/08/10 09:47:49;;;;;;;3.15;1.83;;;24.30;61.30;;;;;;5027125;28;20441;-61
2022/08/10 09:50:21;;;;;;;3.97;1.60;;;24.40;62.00;;;;;;5033814;28;20021;-61
2022/08/10 09:52:50;;;;;;;2.08;1.45;;;24.50;60.70;;;;;;5050568;28;20044;-63
2022/08/10 09:55:37;;;;;;;3.17;1.70;;;24.50;60.20;;;;;;5024964;28;20030;-61
2022/08/10 09:58:37;;;;;;;3.00;1.67;;;24.60;59.70;;;;;;5010574;28;20030;-61
2022/08/10 10:01:17;;;;;;;5.50;1.65;;;24.70;58.20;;;;;;5007457;28;20537;-61
2022/08/10 10:04:20;;;;;;;2.45;1.60;;;24.70;58.40;;;;;;5020068;28;20040;-61
2022/08/10 10:06:58;;;;;;;5.22;1.67;;;24.80;59.40;;;;;;5023039;28;20037;-60
2022/08/10 10:09:28;;;;;;;4.18;1.20;;;24.90;57.00;;;;;;5045953;28;20034;-60
2022/08/10 10:12:06;;;;;;;3.50;1.70;;;24.90;58.20;;;;;;5031645;28;20014;-61
2022/08/10 10:17:59;;;;;;;3.97;1.50;;;25.20;55.60;;;;;;5022183;28;20121;-61
2022/08/10 10:20:38;;;;;;;2.63;1.30;;;25.30;55.60;;;;;;5012918;28;20104;-61
2022/08/10 10:23:21;;;;;;;1.63;1.35;;;25.40;57.10;;;;;;5012193;28;20026;-60
2022/08/10 10:26:12;;;;;;;2.70;1.67;;;25.40;54.40;;;;;;4998431;28;20041;-60
2022/08/10 10:28:59;;;;;;;;;;;25.40;53.50;;;;;;5012174;28;20064;-61
2022/08/10 10:31:51;;;;;;;5.20;1.38;;;25.50;52.80;;;;;;5017918;28;20019;-61
2022/08/10 10:34:34;;;;;;;2.65;1.30;;;25.60;52.60;;;;;;5031737;28;20427;-61
2022/08/10 10:37:01;;;;;;;2.17;1.38;;;25.80;54.20;;;;;;5001234;28;20439;-60
2022/08/10 10:39:30;;;;;;;2.63;1.30;;;25.80;53.00;;;;;;4993793;28;20108;-61
2022/08/10 10:42:12;;;;;;;5.23;1.57;;;25.80;53.10;;;;;;5013160;28;20076;-60
2022/08/10 10:45:00;;;;;;;2.03;1.33;;;25.80;52.60;;;;;;5010943;28;20305;-64
2022/08/10 10:48:03;;;;;;;2.85;1.25;;;25.80;51.70;;;;;;5015575;28;20021;-65
2022/08/10 10:50:50;;;;;;;1.27;1.10;;;25.80;52.20;;;;;;5025423;28;20102;-61
2022/08/10 10:53:40;;;;;;;2.28;1.13;;;25.80;50.80;;;;;;5030755;28;20035;-66
2022/08/10 10:56:51;;;;;;;1.10;1.00;;;25.80;50.20;;;;;;5031517;28;20025;-60
2022/08/10 10:59:27;;;;;;;1.80;1.20;;;25.90;51.60;;;;;;5007928;28;20117;-59
2022/08/10 11:02:18;;;;;;;1.30;1.10;;;25.90;49.50;;;;;;5012928;28;20114;-64
2022/08/10 11:05:05;;;;;;;1.98;1.15;;;26.00;48.90;;;;;;5030886;28;20061;-66
2022/08/10 11:07:48;;;;;;;3.53;1.23;;;26.00;50.60;;;;;;5030986;28;20025;-67
2022/08/10 11:10:19;;;;;;;2.25;1.10;;;26.00;50.70;;;;;;5030375;28;20389;-68
2022/08/10 11:13:07;;;;;;;1.75;1.25;;;26.00;50.90;;;;;;5030708;28;20159;-66
2022/08/10 11:15:47;;;;;;;1.38;1.20;;;26.00;50.30;;;;;;5030156;28;20462;-61
2022/08/10 11:18:57;;;;;;;3.10;1.47;;;26.00;50.50;;;;;;5029369;28;20061;-63
2022/08/10 11:21:39;;;;;;;2.20;1.40;;;26.00;49.00;;;;;;5030589;28;20769;-67
2022/08/10 11:24:08;;;;;;;1.65;1.30;;;26.10;49.90;;;;;;5027089;28;20287;-66
2022/08/10 11:27:02;;;;;;;4.93;1.30;;;26.10;50.00;;;;;;5030288;28;20037;-61
2022/08/10 11:29:43;;;;;;;1.10;1.05;;;26.20;49.20;;;;;;5031121;28;20025;-65
2022/08/10 11:33:02;;;;;;;1.77;1.15;;;26.20;50.00;;;;;;5030798;28;20397;-62
2022/08/10 11:35:27;;;;;;;2.47;1.20;;;26.20;50.80;;;;;;5027124;28;20037;-62
2022/08/10 11:38:07;;;;;;;3.95;1.67;;;26.30;49.60;;;;;;5012115;28;20053;-62
2022/08/10 11:40:41;;;;;;;2.78;1.20;;;26.30;48.90;;;;;;5030678;28;20025;-61
2022/08/10 11:43:22;;;;;;;1.13;1.02;;;26.40;47.10;;;;;;5030528;28;20056;-63
2022/08/10 11:46:17;;;;;;;1.88;0.90;;;26.50;47.20;;;;;;4993190;28;20133;-63
2022/08/10 11:48:51;;;;;;;1.73;1.10;;;26.50;48.10;;;;;;5001485;28;20033;-61
2022/08/10 11:51:38;;;;;;;1.80;1.05;;;26.50;47.60;;;;;;5009489;28;20394;-60
2022/08/10 11:54:15;;;;;;;2.70;1.23;;;26.60;46.90;;;;;;5009723;28;20121;-62
2022/08/10 11:56:52;;;;;;;3.47;0.95;;;26.70;46.50;;;;;;5021813;28;20136;-64
2022/08/10 12:02:10;;;;;;;2.53;1.25;;;26.80;46.10;;;;;;5029939;28;20033;-64
2022/08/10 12:04:39;;;;;;;1.63;1.25;;;26.80;45.90;;;;;;5029133;28;20024;-62
2022/08/10 12:07:08;;;;;;;1.98;1.30;;;26.90;45.20;;;;;;5022331;28;20026;-65
2022/08/10 12:09:34;;;;;;;2.90;1.20;;;26.90;45.50;;;;;;5003817;28;20022;-66
2022/08/10 12:12:01;;;;;;;0.73;0.73;;;26.90;45.60;;;;;;5022132;28;20536;-68
2022/08/10 12:14:34;;;;;;;1.23;0.90;;;27.00;47.00;;;;;;5009767;28;20091;-68
2022/08/10 12:17:08;;;;;;;1.50;1.00;;;27.10;45.30;;;;;;5022715;28;20022;-60
2022/08/10 12:19:43;;;;;;;1.90;1.10;;;27.10;43.60;;;;;;5015990;28;20032;-61
2022/08/10 12:22:14;;;;;;;1.15;0.95;;;27.20;43.80;;;;;;5026130;28;20506;-60
2022/08/10 12:24:47;;;;;;;3.65;1.25;;;27.30;43.60;;;;;;5022637;28;20044;-61
2022/08/10 12:27:19;;;;;;;2.42;1.10;;;27.40;43.80;;;;;;5014694;28;20104;-60
2022/08/10 12:29:54;;;;;;;1.27;0.80;;;27.40;45.10;;;;;;5027661;28;20025;-60
2022/08/10 12:32:34;;;;;;;2.15;1.05;;;27.40;45.80;;;;;;5048523;28;20021;-61
2022/08/10 12:35:12;;;;;;;1.75;1.10;;;27.40;44.50;;;;;;5028460;28;20072;-64
2022/08/10 12:37:47;;;;;;;2.45;1.00;;;27.50;44.90;;;;;;5018171;28;20494;-60
2022/08/10 12:40:22;;;;;;;1.88;1.00;;;27.50;45.10;;;;;;5010367;28;20079;-70
2022/08/10 12:42:55;;;;;;;1.23;0.90;;;27.50;44.70;;;;;;5010655;28;20030;-67
2022/08/10 12:45:38;;;;;;;3.45;1.17;;;27.60;44.40;;;;;;5011407;28;20136;-62
2022/08/10 12:48:36;;;;;;;2.97;0.85;;;27.70;43.70;;;;;;5010409;28;20383;-68
2022/08/10 12:51:21;;;;;;;1.23;0.82;;;27.70;44.00;;;;;;5010739;28;20084;-65
2022/08/10 12:54:17;;;;;;;2.20;1.05;;;27.70;43.90;;;;;;5011126;28;20049;-62
2022/08/10 12:56:58;;;;;;;1.45;1.13;;;27.70;43.70;;;;;;5010124;28;20387;-61
2022/08/10 12:59:26;;;;;;;3.15;1.00;;;27.80;42.30;;;;;;5011484;28;20510;-62
2022/08/10 13:01:54;;;;;;;1.58;1.00;;;27.80;42.70;;;;;;5010655;28;20443;-63
2022/08/10 13:04:33;;;;;;;1.23;0.98;;;27.90;42.50;;;;;;5010520;28;20060;-61
2022/08/10 13:07:00;;;;;;;1.10;0.98;;;27.90;41.80;;;;;;4993340;28;20146;-63
2022/08/10 13:09:27;;;;;;;1.60;1.10;;;27.90;40.20;;;;;;4994205;28;20103;-64
2022/08/10 13:12:01;;;;;;;1.63;1.02;;;27.80;42.20;;;;;;5014418;28;20328;-65
2022/08/10 13:14:56;;;;;;;1.25;0.90;;;27.80;42.40;;;;;;5014918;28;20072;-61
2022/08/10 13:17:27;;;;;;;1.40;0.90;;;27.90;42.40;;;;;;5014337;28;20069;-68
2022/08/10 13:19:53;;;;;;;;;;;27.80;43.00;;;;;;5015021;28;20383;-62
2022/08/10 13:22:22;;;;;;;2.15;1.20;;;28.00;43.50;;;;;;5014985;28;19916;-68